Data for 09/24/2010

Time Sea-Level Adjusted Pressure Absolute Pressure Temperature Relative Humidity Dew Point   
(mb) (inHg) (mb) (inHg) (C) (F) (%) (C) (F)
00:05 1018 30.06 848 25.04 9.2 48.6 42 -2.9 26.8
00:10 1019 30.09 848 25.04 9.2 48.5 40 -3.5 25.6
00:15 1019 30.09 848 25.04 9.5 49.1 39 -3.7 25.4
00:20 1019 30.09 848 25.04 9.6 49.3 40 -3.2 26.2
00:25 1019 30.09 848 25.04 9.4 48.9 40 -3.6 25.5
00:30 1019 30.09 848 25.04 9.3 48.7 41 -3.1 26.4
00:35 1019 30.09 848 25.04 9.1 48.4 42 -3.2 26.2
00:40 1019 30.09 848 25.04 9.3 48.7 42 -3.1 26.4
00:45 1019 30.09 848 25.04 8.9 48.1 43 -3.1 26.5
00:50 1019 30.09 848 25.04 8.9 48 44 -2.7 27.1
00:55 1019 30.09 848 25.04 8.8 47.8 43 -3.1 26.4
01:00 1019 30.09 848 25.04 8.8 47.8 43 -3 26.6
01:05 1019 30.09 848 25.04 8.8 47.9 43 -3 26.6
01:10 1019 30.09 848 25.04 8.6 47.6 44 -3 26.7
01:15 1019 30.09 848 25.04 8.6 47.4 45 -2.7 27.2
01:20 1019 30.09 848 25.04 8.4 47 47 -2.4 27.7
01:25 1019 30.09 848 25.04 8 46.4 48 -2.2 28
01:30 1019 30.09 848 25.04 7.8 46 48 -2.4 27.6
01:35 1019 30.09 848 25.04 7.9 46.1 48 -2.5 27.4
01:40 1019 30.09 848 25.04 7.9 46.2 48 -2.4 27.6
01:45 1019 30.09 848 25.04 7.9 46.2 47 -2.8 27
01:50 1019 30.09 848 25.04 7.9 46.2 48 -2.4 27.6
01:55 1019 30.09 848 25.04 7.8 46.1 48 -2.6 27.4
02:00 1019 30.09 848 25.04 8 46.3 47 -2.7 27.2
02:05 1019 30.09 848 25.04 8 46.3 48 -2.3 27.9
02:10 1019 30.09 848 25.04 7.7 45.8 50 -2 28.4
02:15 1019 30.09 848 25.04 7.4 45.3 51 -2 28.4
02:20 1019 30.09 848 25.04 7.8 46 47 -2.7 27.1
02:25 1019 30.09 848 25.04 8.2 46.7 46 -2.8 27
02:30 1019 30.09 848 25.04 8.4 47.2 46 -2.5 27.5
02:35 1019 30.09 848 25.04 8.3 47 47 -2.3 27.8
02:40 1019 30.09 848 25.04 7.9 46.2 48 -2.4 27.7
02:45 1019 30.09 848 25.04 7.6 45.6 51 -2 28.4
02:50 1019 30.09 848 25.04 7.3 45.2 48 -2.8 27
02:55 1019 30.09 848 25.04 8.1 46.6 45 -3 26.7
03:00 1019 30.09 849 25.07 8.6 47.4 47 -2.2 28
03:05 1019 30.09 849 25.07 8.5 47.3 47 -2.1 28.2
03:10 1019 30.09 849 25.07 8.4 47.2 47 -2.3 27.8
03:15 1020 30.12 849 25.07 8.4 47.1 47 -2.2 28.1
03:20 1020 30.12 849 25.07 8.2 46.7 50 -1.6 29.1
03:25 1020 30.12 849 25.07 7.7 45.9 52 -1.4 29.4
03:30 1020 30.12 849 25.07 7 44.6 57 -0.9 30.3
03:35 1020 30.12 849 25.07 6.5 43.7 56 -1.6 29.2
03:40 1020 30.12 849 25.07 6.8 44.2 56 -1.5 29.4
03:45 1020 30.12 849 25.07 6.9 44.5 54 -1.8 28.8
03:50 1020 30.12 849 25.07 7.1 44.8 53 -1.7 29
03:55 1020 30.12 849 25.07 7.2 44.9 53 -1.7 28.9
04:00 1020 30.12 849 25.07 7.2 45 53 -1.6 29.1
04:05 1020 30.12 849 25.07 7.2 45 49 -2.8 27
04:10 1020 30.12 849 25.07 7.8 46 50 -2.1 28.2
04:15 1020 30.12 849 25.07 7.7 45.8 49 -2.2 28
04:20 1020 30.12 849 25.07 7.9 46.2 50 -2 28.5
04:25 1020 30.12 849 25.07 7.9 46.2 50 -1.9 28.6
04:30 1020 30.12 849 25.07 7.5 45.4 55 -1 30.2
04:35 1020 30.12 849 25.07 6.8 44.3 57 -1.1 30
04:40 1020 30.12 849 25.07 6.4 43.6 59 -1.1 30.1
04:45 1020 30.12 849 25.07 6.1 43 60 -1 30.3
04:50 1020 30.12 849 25.07 5.9 42.6 61 -1.1 30.1
04:55 1020 30.12 849 25.07 5.9 42.7 58 -1.7 28.9
05:00 1020 30.12 849 25.07 6.2 43.2 56 -1.8 28.8
05:05 1020 30.12 849 25.07 6.9 44.4 53 -2.1 28.3
05:10 1020 30.12 849 25.07 7 44.5 55 -1.5 29.3
05:15 1020 30.12 849 25.07 7.1 44.7 54 -1.5 29.2
05:20 1020 30.12 849 25.07 7.1 44.9 52 -2 28.4
05:25 1020 30.12 849 25.07 7.3 45.2 56 -0.9 30.5
05:30 1020 30.12 849 25.07 7.2 45 49 -2.7 27.1
05:35 1020 30.12 849 25.07 8.2 46.7 48 -2.3 27.9
05:40 1020 30.12 849 25.07 8.1 46.6 51 -1.3 29.6
05:45 1020 30.12 849 25.07 8 46.4 48 -2.3 27.9
05:50 1020 30.12 849 25.07 8.4 47.1 44 -3.1 26.5
05:55 1020 30.12 849 25.07 9 48.2 43 -2.7 27.1
06:00 1020 30.12 849 25.07 8.9 48.1 45 -2.3 27.9
06:05 1020 30.12 849 25.07 8.6 47.4 48 -1.8 28.8
06:10 1020 30.12 849 25.07 7.9 46.3 51 -1.6 29.2
06:15 1020 30.12 849 25.07 8.4 47.2 45 -2.6 27.2
06:20 1020 30.12 849 25.07 8.6 47.4 49 -1.5 29.3
06:25 1020 30.12 849 25.07 8.2 46.8 49 -1.9 28.6
06:30 1020 30.12 849 25.07 8.2 46.8 49 -1.9 28.6
06:35 1020 30.12 849 25.07 8.2 46.8 49 -1.9 28.6
06:40 1020 30.12 849 25.07 8.3 46.9 51 -1.3 29.7
06:45 1020 30.12 850 25.1 7.9 46.2 51 -1.5 29.3
06:50 1020 30.12 850 25.1 8 46.3 49 -2.2 28.1
06:55 1020 30.12 850 25.1 8.5 47.3 46 -2.3 27.8
07:00 1020 30.12 850 25.1 9.3 48.8 43 -2.6 27.4
07:05 1020 30.12 850 25.1 9.8 49.6 42 -2.3 27.8
07:10 1020 30.12 850 25.1 10 50 43 -2 28.4
07:15 1021 30.15 850 25.1 9.5 49 44 -2 28.4
07:20 1021 30.15 850 25.1 9.7 49.4 43 -2.2 28
07:25 1021 30.15 850 25.1 10.4 50.7 43 -1.7 28.9
07:30 1021 30.15 850 25.1 11 51.8 40 -1.9 28.5
07:35 1021 30.15 850 25.1 11.3 52.3 40 -1.7 29
07:40 1021 30.15 850 25.1 11.1 51.9 42 -1.3 29.7
07:45 1021 30.15 850 25.1 10.9 51.6 41 -1.9 28.6
07:50 1021 30.15 850 25.1 11 51.8 40 -2 28.4
07:55 1021 30.15 850 25.1 10.9 51.6 41 -1.8 28.8
08:00 1021 30.15 850 25.1 10.6 51 42 -1.7 28.9
08:05 1021 30.15 851 25.13 10.3 50.5 43 -1.6 29
08:10 1021 30.15 851 25.13 10.2 50.3 45 -1.3 29.6
08:15 1022 30.18 851 25.13 10.2 50.3 44 -1.5 29.3
08:20 1022 30.18 851 25.13 10.3 50.5 43 -1.6 29.2
08:25 1022 30.18 851 25.13 10.5 50.9 41 -2.2 28
08:30 1022 30.18 851 25.13 10.7 51.2 40 -2.2 28
08:35 1022 30.18 851 25.13 10.6 51.1 44 -1.2 29.8
08:40 1022 30.18 851 25.13 10.3 50.5 46 -0.7 30.7
08:45 1022 30.18 851 25.13 10.1 50.1 46 -1 30.1
08:50 1022 30.18 851 25.13 10.1 50.1 45 -1.2 29.8
08:55 1022 30.18 851 25.13 10.2 50.4 40 -2.7 27.1
09:00 1022 30.18 851 25.13 10.7 51.3 43 -1.4 29.4
09:05 1022 30.18 851 25.13 10.6 51 51 1 33.8
09:10 1022 30.18 851 25.13 9.6 49.3 53 0.6 33.1
09:15 1022 30.18 851 25.13 9.6 49.2 50 -0.2 31.6
09:20 1022 30.18 851 25.13 9.9 49.7 48 -0.5 31.1
09:25 1021 30.15 851 25.13 10.1 50.2 47 -0.5 31.1
09:30 1021 30.15 851 25.13 10.1 50.3 41 -2.5 27.5
09:35 1022 30.18 851 25.13 10.6 51.1 48 -0 32
09:40 1022 30.18 851 25.13 10.7 51.3 45 -0.6 30.8
09:45 1021 30.15 851 25.13 10.8 51.4 38 -2.9 26.8
09:50 1022 30.18 851 25.13 11.1 52.1 37 -2.8 26.9
09:55 1022 30.18 851 25.13 11.5 52.6 42 -1 30.3
10:00 1022 30.18 851 25.13 11.7 53 41 -1.1 30
10:05 1022 30.18 851 25.13 12 53.6 42 -0.5 31.1
10:10 1022 30.18 851 25.13 12.2 53.9 42 -0.3 31.5
10:15 1022 30.18 851 25.13 12.4 54.3 42 -0.2 31.7
10:20 1022 30.18 851 25.13 12.6 54.8 41 -0.3 31.4
10:25 1022 30.18 852 25.16 12.7 54.8 40 -0.5 31.1
10:30 1023 30.21 852 25.16 12.8 55 39 -0.9 30.4
10:35 1023 30.21 852 25.16 12.7 54.9 39 -0.8 30.5
10:40 1023 30.21 852 25.16 12.7 54.8 38 -1 30.1
10:45 1023 30.21 852 25.16 12.6 54.7 39 -1 30.2
10:50 1023 30.21 852 25.16 12.5 54.4 41 -0.4 31.3
10:55 1023 30.21 852 25.16 12.4 54.3 43 0.3 32.5
11:00 1023 30.21 852 25.16 12.2 54 41 -0.6 30.9
11:05 1023 30.21 852 25.16 12.1 53.8 42 -0.2 31.6
11:10 1023 30.21 852 25.16 12.4 54.2 41 -0.4 31.3
11:15 1023 30.21 852 25.16 12.5 54.4 35 -2.6 27.3
11:20 1023 30.21 852 25.16 12.7 54.9 38 -1.1 30
11:25 1023 30.21 852 25.16 12.9 55.2 37 -1.2 29.8
11:30 1023 30.21 852 25.16 12.8 55.1 37 -1.5 29.3
11:35 1023 30.21 852 25.16 13 55.5 35 -2.1 28.2
11:40 1023 30.21 853 25.19 13.3 56 35 -1.9 28.6
11:45 1023 30.21 853 25.19 13.4 56.1 37 -1 30.3
11:50 1023 30.21 853 25.19 13.6 56.5 36 -1.1 30.1
11:55 1023 30.21 853 25.19 13.6 56.4 37 -0.8 30.6
12:00 1023 30.21 853 25.19 13.8 56.9 36 -0.8 30.5
12:05 1023 30.21 853 25.19 13.9 57 36 -0.9 30.4
12:10 1023 30.21 853 25.19 13.8 56.9 37 -0.7 30.8
12:15 1023 30.21 853 25.19 13.6 56.4 38 -0.2 31.6
12:20 1023 30.21 853 25.19 13.4 56.1 38 -0.6 30.9
12:25 1023 30.21 853 25.19 13.3 55.9 37 -0.9 30.4
12:30 1023 30.21 853 25.19 13.4 56.1 38 -0.6 30.9
12:35 1023 30.21 853 25.19 13.4 56.2 38 -0.4 31.3
12:40 1023 30.21 853 25.19 13.3 55.9 39 -0.3 31.5
12:45 1023 30.21 853 25.19 13.3 56 38 -0.6 30.9
12:50 1024 30.24 853 25.19 13.3 56 39 -0.3 31.4
12:55 1024 30.24 853 25.19 13.5 56.4 38 -0.3 31.5
13:00 1024 30.24 853 25.19 13.8 56.8 38 -0.2 31.6
13:05 1024 30.24 853 25.19 13.8 56.9 37 -0.4 31.2
13:10 1024 30.24 853 25.19 13.9 57.1 38 -0.2 31.7
13:15 1024 30.24 853 25.19 14.1 57.3 38 0.1 32.1
13:20 1024 30.24 853 25.19 13.9 57.1 39 0.1 32.2
13:25 1024 30.24 853 25.19 14.2 57.6 38 0 32.1
13:30 1024 30.24 853 25.19 14.1 57.4 37 -0.2 31.6
13:35 1024 30.24 853 25.19 14.7 58.4 36 -0.1 31.8
13:40 1024 30.24 853 25.19 14.7 58.4 37 0 32.1
13:45 1024 30.24 853 25.19 15.4 59.8 34 -0.1 31.7
13:50 1024 30.24 853 25.19 15.7 60.2 36 0.6 33
13:55 1024 30.24 853 25.19 16.1 61 34 0.3 32.5
14:00 1024 30.24 853 25.19 16.3 61.3 35 1 33.9
14:05 1024 30.24 853 25.19 16.3 61.3 33 0.3 32.5
14:10 1024 30.24 853 25.19 16.7 62.1 32 0.1 32.2
14:15 1024 30.24 853 25.19 17.3 63.2 33 0.9 33.7
14:20 1024 30.24 853 25.19 17.2 62.9 30 -0.6 31
14:25 1024 30.24 853 25.19 16.9 62.5 31 -0.2 31.7
14:30 1024 30.24 853 25.19 17.6 63.6 30 -0.1 31.7
14:35 1024 30.24 853 25.19 18 64.3 30 0.1 32.2
14:40 1024 30.24 853 25.19 17.4 63.2 32 0.6 33.2
14:45 1024 30.24 853 25.19 16.4 61.5 33 0.2 32.3
14:50 1023 30.21 853 25.19 15.7 60.3 34 -0.1 31.8
14:55 1023 30.21 853 25.19 15.9 60.7 34 0.1 32.1
15:00 1023 30.21 853 25.19 16.5 61.6 33 0.3 32.5
15:05 1023 30.21 853 25.19 16.3 61.3 33 0.2 32.4
15:10 1024 30.24 853 25.19 16.5 61.8 33 0.3 32.5
15:15 1023 30.21 853 25.19 16.7 62.1 32 0.3 32.5
15:20 1023 30.21 853 25.19 16.9 62.4 34 1 33.7
15:25 1023 30.21 853 25.19 16.3 61.4 35 0.8 33.4
15:30 1023 30.21 853 25.19 16.5 61.8 33 0.5 32.9
15:35 1023 30.21 853 25.19 16.6 61.9 34 0.8 33.4
15:40 1023 30.21 853 25.19 16.7 62.1 33 0.6 33.1
15:45 1023 30.21 853 25.19 16.6 61.9 34 0.9 33.7
15:50 1023 30.21 853 25.19 16.3 61.4 34 0.6 33.1
15:55 1023 30.21 853 25.19 16.9 62.4 33 0.6 33.2
16:00 1023 30.21 853 25.19 17.2 62.9 33 0.9 33.6
16:05 1023 30.21 852 25.16 17.7 63.8 32 0.9 33.6
16:10 1023 30.21 852 25.16 18.1 64.6 32 1.3 34.3
16:15 1023 30.21 853 25.19 18.2 64.7 32 1.5 34.6
16:20 1023 30.21 853 25.19 18.5 65.3 33 2.2 35.9
16:25 1023 30.21 853 25.19 18.4 65.1 32 1.6 34.9
16:30 1023 30.21 853 25.19 19.7 67.4 29 1.2 34.2
16:35 1024 30.24 853 25.19 20.3 68.5 27 0.6 33.2
16:40 1024 30.24 853 25.19 19.9 67.8 28 1 33.9
16:45 1024 30.24 853 25.19 19.8 67.6 29 1.3 34.3
16:50 1024 30.24 853 25.19 20.1 68.1 28 1.4 34.4
16:55 1024 30.24 853 25.19 20.1 68.2 28 1.2 34.2
17:00 1024 30.24 853 25.19 19.7 67.5 29 1.3 34.3
17:05 1024 30.24 853 25.19 19.6 67.3 29 1.3 34.3
17:10 1024 30.24 853 25.19 19.5 67.2 30 1.4 34.6
17:15 1024 30.24 853 25.19 19.8 67.6 30 1.7 35.1
17:20 1024 30.24 853 25.19 19.5 67.1 31 2 35.5
17:25 1024 30.24 853 25.19 18.9 66 32 2 35.6
17:30 1024 30.24 853 25.19 18.6 65.5 31 1.2 34.1
17:35 1024 30.24 853 25.19 18.4 65 31 0.9 33.7
17:40 1024 30.24 854 25.22 18.8 65.8 31 1.5 34.7
17:45 1024 30.24 854 25.22 19.1 66.3 32 2 35.6
17:50 1024 30.24 854 25.22 18.9 65.9 33 2.2 36
17:55 1024 30.24 854 25.22 18.5 65.2 31 1.4 34.5
18:00 1024 30.24 854 25.22 18.1 64.6 32 1.1 34
18:05 1024 30.24 854 25.22 17.8 64.1 33 1.3 34.3
18:10 1024 30.24 854 25.22 17.6 63.6 33 1.1 34
18:15 1025 30.27 854 25.22 17.3 63.1 34 1.5 34.6
18:20 1025 30.27 854 25.22 17 62.5 34 1.1 33.9
18:25 1025 30.27 854 25.22 16.8 62.2 35 1.3 34.4
18:30 1025 30.27 854 25.22 16.6 62 35 1.3 34.3
18:35 1025 30.27 854 25.22 16.6 61.9 37 1.8 35.2
18:40 1025 30.27 854 25.22 16.4 61.5 39 2.4 36.4
18:45 1025 30.27 854 25.22 15.3 59.5 42 2.4 36.2
18:50 1025 30.27 854 25.22 14.6 58.2 41 1.6 34.9
18:55 1025 30.27 854 25.22 14.6 58.2 37 0.2 32.4
19:00 1025 30.27 854 25.22 15 59 37 0.6 33.1
19:05 1025 30.27 854 25.22 15.1 59.2 37 0.5 33
19:10 1025 30.27 854 25.22 15.4 59.7 37 0.8 33.5
19:15 1025 30.27 854 25.22 15.3 59.5 38 1.1 34
19:20 1025 30.27 855 25.25 15.2 59.3 37 0.6 33.1
19:25 1025 30.27 855 25.25 15.2 59.3 37 0.8 33.4
19:30 1026 30.3 855 25.25 15 59.1 37 0.4 32.8
19:35 1026 30.3 855 25.25 15 59 39 1.1 34.1
19:40 1026 30.3 855 25.25 14.4 57.9 41 1.4 34.6
19:45 1026 30.3 855 25.25 13.7 56.6 43 1.3 34.4
19:50 1026 30.3 855 25.25 13 55.5 46 1.6 34.9
19:55 1026 30.3 855 25.25 12.5 54.4 49 2.1 35.8
20:00 1026 30.3 855 25.25 11.8 53.2 51 2 35.6
20:05 1026 30.3 855 25.25 11.5 52.7 50 1.6 34.9
20:10 1026 30.3 855 25.25 11.5 52.7 50 1.5 34.7
20:15 1026 30.3 855 25.25 11.6 52.8 49 1.4 34.5
20:20 1026 30.3 855 25.25 11.7 53.1 48 1.1 34
20:25 1026 30.3 855 25.25 11.9 53.4 49 1.4 34.6
20:30 1026 30.3 855 25.25 11.6 52.9 50 1.6 34.9
20:35 1026 30.3 855 25.25 11.3 52.3 51 1.7 35
20:40 1026 30.3 855 25.25 11 51.8 52 1.6 34.8
20:45 1026 30.3 855 25.25 10.8 51.5 53 1.6 34.9
20:50 1026 30.3 855 25.25 10.7 51.2 53 1.6 34.9
20:55 1026 30.3 856 25.28 10.6 51.1 52 1.3 34.3
21:00 1026 30.3 856 25.28 10.8 51.4 52 1.3 34.3
21:05 1026 30.3 856 25.28 10.9 51.6 50 0.8 33.5
21:10 1027 30.33 856 25.28 10.8 51.4 52 1.5 34.7
21:15 1027 30.33 856 25.28 10 50 57 1.8 35.3
21:20 1027 30.33 856 25.28 9.8 49.7 55 1.2 34.2
21:25 1027 30.33 856 25.28 9.8 49.7 55 1.3 34.4
21:30 1027 30.33 856 25.28 10 50 53 1 33.8
21:35 1027 30.33 856 25.28 10.2 50.3 53 1 33.7
21:40 1027 30.33 856 25.28 10.2 50.3 52 0.7 33.2
21:45 1027 30.33 856 25.28 10.3 50.6 52 0.9 33.5
21:50 1027 30.33 856 25.28 10.2 50.4 53 1 33.8
21:55 1027 30.33 856 25.28 10.3 50.6 50 0.5 32.9
22:00 1027 30.33 856 25.28 10.4 50.6 52 1 33.8
22:05 1027 30.33 856 25.28 10.1 50.1 53 1 33.7
22:10 1027 30.33 856 25.28 9.9 49.7 53 0.7 33.3
22:15 1027 30.33 856 25.28 9.8 49.7 53 0.7 33.2
22:20 1027 30.33 856 25.28 9.9 49.7 52 0.6 33.1
22:25 1027 30.33 856 25.28 9.7 49.5 53 0.7 33.3
22:30 1027 30.33 856 25.28 9.6 49.2 54 0.7 33.3
22:35 1027 30.33 856 25.28 9.4 48.9 55 1 33.7
22:40 1027 30.33 856 25.28 9.2 48.5 57 1 33.8
22:45 1027 30.33 856 25.28 8.6 47.5 60 1.3 34.4
22:50 1027 30.33 856 25.28 8.4 47.1 58 0.6 33.1
22:55 1027 30.33 856 25.28 8.6 47.4 58 0.9 33.6
23:00 1027 30.33 856 25.28 8.4 47.2 59 0.9 33.7
23:05 1027 30.33 856 25.28 8.3 46.9 59 0.7 33.3
23:10 1027 30.33 856 25.28 8.5 47.2 57 0.4 32.7
23:15 1027 30.33 857 25.31 8.8 47.9 55 0.3 32.6
23:20 1027 30.33 856 25.28 9 48.2 54 0.2 32.4
23:25 1027 30.33 857 25.31 9.3 48.8 52 -0.1 31.8
23:30 1027 30.33 857 25.31 9.6 49.3 52 0.2 32.3
23:35 1027 30.33 857 25.31 9.6 49.2 52 0.3 32.6
23:40 1027 30.33 857 25.31 9.2 48.5 54 0.5 32.8
23:45 1027 30.33 857 25.31 8.9 48 55 0.3 32.6
23:50 1028 30.36 857 25.31 9 48.2 53 -0 32
23:55 1028 30.36 857 25.31 9.1 48.4 54 0.2 32.4
24:00 1028 30.36 857 25.31 9 48.2 55 0.4 32.8